Time;durP1;ratioP1;P1;durP2;ratioP2;P2;SDS_P1;SDS_P2;PMS_P1;PMS_P2;Temp;Humidity;BMP_temperature;BMP_pressure;BME280_temperature;BME280_humidity;BME280_pressure;Samples;Min_cycle;Max_cycle;Signal;HPM_P1;HPM_P2
2023/01/07 00:01:22;;;;;;;8.20;5.77;;;5.60;75.80;;;;;;5007238;28;20201;-77
2023/01/07 00:03:50;;;;;;;8.47;5.00;;;5.60;76.20;;;;;;5007673;28;20201;-76
2023/01/07 00:06:19;;;;;;;7.10;4.73;;;5.50;76.30;;;;;;5007887;28;20220;-77
2023/01/07 00:08:47;;;;;;;8.47;5.57;;;5.50;76.30;;;;;;5008415;28;20177;-76
2023/01/07 00:11:20;;;;;;;7.83;5.57;;;5.40;76.60;;;;;;4995914;28;20686;-77
2023/01/07 00:13:48;;;;;;;8.07;6.57;;;5.40;76.20;;;;;;4997219;28;20177;-77
2023/01/07 00:16:16;;;;;;;14.27;6.93;;;5.40;76.20;;;;;;5009810;28;20189;-77
2023/01/07 00:18:43;;;;;;;6.23;5.60;;;5.30;76.70;;;;;;5009164;28;20681;-77
2023/01/07 00:21:12;;;;;;;7.70;5.20;;;5.30;77.60;;;;;;5007316;28;20181;-77
2023/01/07 00:23:39;;;;;;;7.57;4.93;;;5.20;77.40;;;;;;5007132;28;20173;-77
2023/01/07 00:26:06;;;;;;;16.83;5.67;;;5.20;77.00;;;;;;5007440;28;20218;-77
2023/01/07 00:28:34;;;;;;;10.00;5.73;;;5.20;77.30;;;;;;5008320;28;20192;-77
2023/01/07 00:31:01;;;;;;;7.07;4.77;;;5.10;77.70;;;;;;5007131;28;20188;-77
2023/01/07 00:33:29;;;;;;;13.60;5.37;;;5.10;78.50;;;;;;5010717;28;20196;-76
2023/01/07 00:36:03;;;;;;;7.53;5.37;;;5.00;77.90;;;;;;5011499;28;20189;-77
2023/01/07 00:38:30;;;;;;;6.67;5.03;;;4.90;77.60;;;;;;5005772;28;20221;-76
2023/01/07 00:40:56;;;;;;;7.47;4.73;;;4.90;77.20;;;;;;5008734;28;20303;-77
2023/01/07 00:43:22;;;;;;;8.13;4.70;;;4.90;77.70;;;;;;5017621;28;20271;-76
2023/01/07 00:45:47;;;;;;;6.87;4.23;;;4.80;77.60;;;;;;5007917;28;20544;-76
2023/01/07 00:48:13;;;;;;;8.77;5.67;;;4.80;78.50;;;;;;5013422;28;20723;-77
2023/01/07 00:50:39;;;;;;;5.17;4.10;;;4.80;78.70;;;;;;5006696;28;20188;-76
2023/01/07 00:53:05;;;;;;;12.83;4.63;;;4.80;79.10;;;;;;5007531;28;20181;-76
2023/01/07 00:55:31;;;;;;;7.53;4.63;;;4.70;78.00;;;;;;5012294;28;20212;-76
2023/01/07 00:57:57;;;;;;;8.27;4.87;;;4.70;78.50;;;;;;5013403;28;20185;-76
2023/01/07 01:00:25;;;;;;;6.00;4.20;;;4.60;78.60;;;;;;5006856;28;20686;-76
2023/01/07 01:02:51;;;;;;;9.97;4.73;;;4.60;78.70;;;;;;5006445;28;20826;-76
2023/01/07 01:05:18;;;;;;;7.27;4.80;;;4.60;78.40;;;;;;5007128;28;20268;-77
2023/01/07 01:07:44;;;;;;;9.63;5.03;;;4.50;79.10;;;;;;5003790;28;20210;-76
2023/01/07 01:10:12;;;;;;;4.50;4.10;;;4.60;80.10;;;;;;5003520;28;20240;-76
2023/01/07 01:12:38;;;;;;;7.77;4.57;;;4.50;79.60;;;;;;4998502;28;20173;-76
2023/01/07 01:15:07;;;;;;;5.93;4.23;;;4.50;80.50;;;;;;5005039;28;20790;-75
2023/01/07 01:17:33;;;;;;;7.70;4.73;;;4.40;79.80;;;;;;5007459;28;20177;-76
2023/01/07 01:19:59;;;;;;;4.60;3.90;;;4.40;79.70;;;;;;5007271;28;20821;-76
2023/01/07 01:22:25;;;;;;;8.70;4.37;;;4.30;79.70;;;;;;5007280;28;20192;-76
2023/01/07 01:24:51;;;;;;;6.53;4.10;;;4.30;80.10;;;;;;5005597;28;20224;-77
2023/01/07 01:27:17;;;;;;;6.33;4.20;;;4.30;79.70;;;;;;4996295;28;20217;-77
2023/01/07 01:29:42;;;;;;;5.97;4.40;;;4.30;79.90;;;;;;5006189;28;20181;-75
2023/01/07 01:32:08;;;;;;;8.43;4.20;;;4.20;79.30;;;;;;4999268;28;20190;-77
2023/01/07 01:34:34;;;;;;;4.73;4.00;;;4.20;80.00;;;;;;4999659;28;20221;-76
2023/01/07 01:36:59;;;;;;;8.07;4.50;;;4.20;79.50;;;;;;4998670;28;20203;-76
2023/01/07 01:39:25;;;;;;;6.33;4.27;;;4.20;79.90;;;;;;5003403;28;20205;-75
2023/01/07 01:41:51;;;;;;;6.03;4.43;;;4.20;79.80;;;;;;5006302;28;20212;-76
2023/01/07 01:44:51;;;;;;;7.27;4.53;;;4.20;80.00;;;;;;5004317;28;20280;-76
2023/01/07 01:47:35;;;;;;;7.40;3.77;;;4.20;79.40;;;;;;5002683;28;20213;-76
2023/01/07 01:50:28;;;;;;;8.97;4.00;;;4.20;79.90;;;;;;4999666;28;20190;-74
2023/01/07 01:53:22;;;;;;;6.40;3.67;;;4.20;79.80;;;;;;4990186;28;20269;-74
2023/01/07 01:56:01;;;;;;;3.03;2.73;;;4.30;80.00;;;;;;5004903;28;20177;-76
2023/01/07 01:58:46;;;;;;;5.00;3.10;;;4.30;81.50;;;;;;5005267;28;20228;-74
2023/01/07 02:01:12;;;;;;;3.00;2.80;;;4.20;81.60;;;;;;4997343;28;20293;-76
2023/01/07 02:03:38;;;;;;;3.83;2.70;;;4.20;81.10;;;;;;4998384;28;20198;-76
2023/01/07 02:06:04;;;;;;;5.30;3.30;;;4.20;81.00;;;;;;5005434;28;21014;-77
2023/01/07 02:08:30;;;;;;;4.73;3.33;;;4.20;81.00;;;;;;4994164;28;20208;-76
2023/01/07 02:11:32;;;;;;;4.97;3.07;;;4.20;80.90;;;;;;4998830;28;20181;-76
2023/01/07 02:14:37;;;;;;;3.90;3.03;;;4.20;80.40;;;;;;5005078;28;20188;-76
2023/01/07 02:17:23;;;;;;;4.10;2.90;;;4.20;80.50;;;;;;4907106;29;20666;-76
2023/01/07 02:20:06;;;;;;;3.20;2.83;;;4.20;80.30;;;;;;4905251;29;20208;-76
2023/01/07 02:22:56;;;;;;;3.47;3.17;;;4.10;80.30;;;;;;4889168;29;20315;-77
2023/01/07 02:25:45;;;;;;;2.10;2.00;;;4.10;80.60;;;;;;4897368;29;20674;-76
2023/01/07 02:28:35;;;;;;;3.23;2.33;;;4.10;80.00;;;;;;4913065;29;20283;-77
2023/01/07 02:31:42;;;;;;;9.13;3.00;;;4.10;80.30;;;;;;4903919;29;20686;-76
2023/01/07 02:34:32;;;;;;;2.77;2.20;;;4.10;80.10;;;;;;4906631;29;20206;-76
2023/01/07 02:37:33;;;;;;;3.83;2.67;;;4.10;80.50;;;;;;4913930;29;20211;-77
2023/01/07 02:40:22;;;;;;;4.47;2.67;;;4.10;80.50;;;;;;4850799;29;20214;-76
2023/01/07 02:43:06;;;;;;;4.30;2.93;;;4.10;80.40;;;;;;4850154;29;20205;-75
2023/01/07 02:45:39;;;;;;;3.15;2.75;;;4.10;80.60;;;;;;4849251;29;20592;-76
2023/01/07 02:48:08;;;;;;;7.00;3.63;;;4.00;80.80;;;;;;4850950;29;20514;-77
2023/01/07 02:50:34;;;;;;;2.17;2.00;;;4.00;80.80;;;;;;4850494;29;20865;-76
2023/01/07 02:53:00;;;;;;;3.17;2.67;;;4.00;81.40;;;;;;4861403;29;20207;-75
2023/01/07 02:55:47;;;;;;;4.20;1.90;;;4.00;81.40;;;;;;4944238;29;20183;-77
2023/01/07 02:58:18;;;;;;;6.30;2.63;;;4.00;81.60;;;;;;4946139;28;20183;-76
2023/01/07 03:01:21;;;;;;;4.43;2.50;;;3.90;81.10;;;;;;4936379;28;20183;-75
2023/01/07 03:04:11;;;;;;;3.07;2.80;;;3.90;81.10;;;;;;4943058;29;20964;-76
2023/01/07 03:06:51;;;;;;;2.57;2.40;;;3.90;81.00;;;;;;4943890;29;20229;-75
2023/01/07 03:09:23;;;;;;;6.23;2.43;;;3.90;80.70;;;;;;4944138;29;20205;-76
2023/01/07 03:12:46;;;;;;;2.67;2.10;;;3.80;81.80;;;;;;4943547;29;20198;-76
2023/01/07 03:15:17;;;;;;;2.57;2.37;;;3.80;81.60;;;;;;4890647;29;20208;-76
2023/01/07 03:18:17;;;;;;;5.93;2.70;;;3.80;82.20;;;;;;4950769;28;20281;-75
2023/01/07 03:20:46;;;;;;;4.30;3.00;;;3.80;82.00;;;;;;4943915;29;20218;-76
2023/01/07 03:23:14;;;;;;;2.93;2.13;;;3.80;81.80;;;;;;4938083;28;20629;-75
2023/01/07 03:25:45;;;;;;;2.73;2.37;;;3.80;81.70;;;;;;4949299;28;20585;-76
2023/01/07 03:28:16;;;;;;;2.03;1.93;;;3.80;81.80;;;;;;4951922;28;20687;-76
2023/01/07 03:30:42;;;;;;;2.87;2.63;;;3.80;81.90;;;;;;4952377;28;20190;-76
2023/01/07 03:33:24;;;;;;;5.40;2.60;;;3.80;81.90;;;;;;4942941;28;20210;-75
2023/01/07 03:35:51;;;;;;;2.20;2.00;;;3.80;81.70;;;;;;4952960;28;20972;-76
2023/01/07 03:38:20;;;;;;;3.33;2.90;;;3.80;81.90;;;;;;4943639;28;20197;-76
2023/01/07 03:40:46;;;;;;;2.07;1.97;;;3.80;81.60;;;;;;4943144;28;20314;-76
2023/01/07 03:43:13;;;;;;;2.33;2.13;;;3.80;81.90;;;;;;4949773;28;20207;-75
2023/01/07 03:45:39;;;;;;;2.57;2.30;;;3.70;81.60;;;;;;4961668;28;20193;-76
2023/01/07 03:48:05;;;;;;;2.10;2.00;;;3.80;82.00;;;;;;5003511;28;20240;-76
2023/01/07 03:50:31;;;;;;;2.53;2.20;;;3.80;81.90;;;;;;5011546;28;20343;-76
2023/01/07 03:52:57;;;;;;;3.03;2.70;;;3.80;82.20;;;;;;5004161;28;20263;-76
2023/01/07 03:55:22;;;;;;;3.67;2.80;;;3.90;82.10;;;;;;4992615;28;20606;-76
2023/01/07 03:57:48;;;;;;;3.30;2.70;;;3.90;82.30;;;;;;5005022;28;20189;-76
2023/01/07 04:00:15;;;;;;;4.27;2.77;;;3.90;83.30;;;;;;5007489;28;20272;-77
2023/01/07 04:02:41;;;;;;;4.83;3.03;;;4.00;83.70;;;;;;5002739;28;20201;-76
2023/01/07 04:05:08;;;;;;;4.37;3.20;;;4.00;83.80;;;;;;5002411;28;20203;-76
2023/01/07 04:07:34;;;;;;;3.23;2.93;;;4.00;83.80;;;;;;5004329;28;20600;-76
2023/01/07 04:10:00;;;;;;;5.33;2.77;;;4.10;84.30;;;;;;4992264;28;20246;-77
2023/01/07 04:12:25;;;;;;;3.20;2.70;;;4.10;84.30;;;;;;5004066;28;20670;-76
2023/01/07 04:14:51;;;;;;;3.47;2.63;;;4.10;83.80;;;;;;5003428;28;20184;-76
2023/01/07 04:17:17;;;;;;;2.70;2.10;;;4.10;84.30;;;;;;5004085;28;20193;-76
2023/01/07 04:19:43;;;;;;;4.07;2.53;;;4.10;84.50;;;;;;5005274;28;20184;-76
2023/01/07 04:22:09;;;;;;;4.47;2.80;;;4.10;84.30;;;;;;5013547;28;20184;-76
2023/01/07 04:24:35;;;;;;;2.47;2.20;;;4.10;83.80;;;;;;5008620;28;20190;-75
2023/01/07 04:27:01;;;;;;;3.10;2.60;;;4.10;84.50;;;;;;5005196;28;20216;-76
2023/01/07 04:29:27;;;;;;;4.73;2.13;;;4.10;84.50;;;;;;5016529;28;20193;-76
2023/01/07 04:31:52;;;;;;;3.87;2.47;;;4.20;84.50;;;;;;5000917;28;20272;-77
2023/01/07 04:34:18;;;;;;;2.93;2.07;;;4.20;84.50;;;;;;5003386;28;20196;-77
2023/01/07 04:36:44;;;;;;;3.27;2.10;;;4.20;84.50;;;;;;5004141;28;20189;-76
2023/01/07 04:39:11;;;;;;;3.13;2.03;;;4.20;84.60;;;;;;5007254;28;20539;-76
2023/01/07 04:41:37;;;;;;;2.30;2.03;;;4.20;84.30;;;;;;5006498;28;20192;-76
2023/01/07 04:44:03;;;;;;;3.13;2.33;;;4.20;84.20;;;;;;5004889;28;20184;-75
2023/01/07 04:46:29;;;;;;;2.63;1.80;;;4.30;84.20;;;;;;5009203;28;20220;-77
2023/01/07 04:48:55;;;;;;;3.33;2.03;;;4.30;83.90;;;;;;5006054;28;20675;-77
2023/01/07 04:51:20;;;;;;;3.20;2.23;;;4.30;83.40;;;;;;5006477;28;20741;-76
2023/01/07 04:53:46;;;;;;;2.57;2.23;;;4.30;83.60;;;;;;5009301;28;20224;-76
2023/01/07 04:56:12;;;;;;;3.83;1.87;;;4.40;83.40;;;;;;5008031;28;20193;-75
2023/01/07 04:58:38;;;;;;;2.90;2.10;;;4.40;83.50;;;;;;5006705;28;20301;-77
2023/01/07 05:01:04;;;;;;;2.33;1.80;;;4.40;83.50;;;;;;4989695;28;20229;-77
2023/01/07 05:03:33;;;;;;;1.83;1.73;;;4.40;83.00;;;;;;5005368;28;20648;-77
2023/01/07 05:05:59;;;;;;;2.53;2.10;;;4.50;83.00;;;;;;4994906;28;20300;-77
2023/01/07 05:08:24;;;;;;;6.53;2.70;;;4.50;82.80;;;;;;4984443;28;20181;-77
2023/01/07 05:10:52;;;;;;;3.30;1.97;;;4.50;82.90;;;;;;5006225;28;20689;-76
2023/01/07 05:13:19;;;;;;;2.83;2.10;;;4.50;82.20;;;;;;5003320;28;20246;-76
2023/01/07 05:15:46;;;;;;;3.40;2.80;;;4.60;82.60;;;;;;4996230;28;20185;-76
2023/01/07 05:18:12;;;;;;;2.77;2.33;;;4.60;82.40;;;;;;4984606;28;20243;-73
2023/01/07 05:20:38;;;;;;;2.60;2.40;;;4.60;81.80;;;;;;4996917;28;20189;-75
2023/01/07 05:23:05;;;;;;;2.70;2.30;;;4.60;82.00;;;;;;5006443;28;20196;-77
2023/01/07 05:25:32;;;;;;;2.03;1.87;;;4.60;81.80;;;;;;5007231;28;20251;-76
2023/01/07 05:27:58;;;;;;;2.97;2.07;;;4.60;82.20;;;;;;5006814;28;20694;-76
2023/01/07 05:30:23;;;;;;;2.37;2.17;;;4.60;81.60;;;;;;5005444;28;20189;-76
2023/01/07 05:32:49;;;;;;;3.63;2.17;;;4.60;81.80;;;;;;5005755;28;20733;-76
2023/01/07 05:35:15;;;;;;;2.83;2.63;;;4.60;81.50;;;;;;5008880;28;20185;-76
2023/01/07 05:37:40;;;;;;;2.83;2.37;;;4.60;81.50;;;;;;5001947;28;20188;-75
2023/01/07 05:40:07;;;;;;;2.93;2.50;;;4.60;81.20;;;;;;5015333;28;20180;-76
2023/01/07 05:42:33;;;;;;;2.30;2.13;;;4.60;81.40;;;;;;5005582;28;20192;-76
2023/01/07 05:44:59;;;;;;;2.83;2.13;;;4.70;81.40;;;;;;5006282;28;20196;-75
2023/01/07 05:47:25;;;;;;;3.30;2.33;;;4.70;81.50;;;;;;5005875;28;20655;-75
2023/01/07 05:49:51;;;;;;;2.83;2.53;;;4.70;81.40;;;;;;5006494;28;20209;-76
2023/01/07 05:52:16;;;;;;;4.13;3.50;;;4.60;81.20;;;;;;5018883;28;20181;-76
2023/01/07 05:54:42;;;;;;;2.43;2.27;;;4.70;81.40;;;;;;5005374;28;20287;-75
2023/01/07 05:57:08;;;;;;;5.97;2.80;;;4.70;81.50;;;;;;5006149;28;20189;-76
2023/01/07 05:59:33;;;;;;;6.23;3.37;;;4.70;81.90;;;;;;5003060;28;20177;-76
2023/01/07 06:02:00;;;;;;;11.03;3.67;;;4.60;81.60;;;;;;5002666;28;20227;-75
2023/01/07 06:04:26;;;;;;;3.73;2.97;;;4.60;81.60;;;;;;5010217;28;20196;-75
2023/01/07 06:06:52;;;;;;;3.43;3.13;;;4.60;81.70;;;;;;5011519;28;20208;-76
2023/01/07 06:09:18;;;;;;;8.17;4.37;;;4.60;81.90;;;;;;5004358;28;20239;-75
2023/01/07 06:11:44;;;;;;;5.33;4.77;;;4.60;82.40;;;;;;5006117;28;20965;-76
2023/01/07 06:14:09;;;;;;;6.73;4.03;;;4.60;82.60;;;;;;4999614;28;20189;-75
2023/01/07 06:16:35;;;;;;;5.37;4.13;;;4.60;82.50;;;;;;5001205;28;20677;-74
2023/01/07 06:19:01;;;;;;;4.47;4.07;;;4.60;82.90;;;;;;5005710;28;20181;-76
2023/01/07 06:21:27;;;;;;;13.20;5.40;;;4.60;82.70;;;;;;5005940;28;20173;-75
2023/01/07 06:23:52;;;;;;;4.50;4.07;;;4.60;82.90;;;;;;4998774;28;20619;-75
2023/01/07 06:26:18;;;;;;;6.27;4.13;;;4.60;82.60;;;;;;5004236;28;20214;-75
2023/01/07 06:28:44;;;;;;;7.27;4.73;;;4.60;82.30;;;;;;5005508;28;20235;-78
2023/01/07 06:31:10;;;;;;;6.90;4.63;;;4.60;81.60;;;;;;5002972;28;20268;-74
2023/01/07 06:33:36;;;;;;;5.43;4.43;;;4.70;82.00;;;;;;4997980;28;20268;-75
2023/01/07 06:36:03;;;;;;;5.73;4.23;;;4.70;82.50;;;;;;4991293;28;20677;-74
2023/01/07 06:38:29;;;;;;;8.80;5.10;;;4.90;83.00;;;;;;5002071;28;20247;-74
2023/01/07 06:40:57;;;;;;;6.60;5.00;;;5.00;83.50;;;;;;5005672;28;20185;-76
2023/01/07 06:43:23;;;;;;;5.47;4.97;;;5.30;84.10;;;;;;5005100;28;20566;-76
2023/01/07 06:45:49;;;;;;;7.53;4.97;;;5.50;84.40;;;;;;5005128;28;20185;-76
2023/01/07 06:48:14;;;;;;;8.00;5.00;;;5.90;85.30;;;;;;5005617;28;20177;-76
2023/01/07 06:50:40;;;;;;;8.67;4.40;;;6.30;85.70;;;;;;5005909;28;20181;-75
2023/01/07 06:53:06;;;;;;;8.77;5.73;;;6.70;85.50;;;;;;5004737;28;20184;-76
2023/01/07 06:55:31;;;;;;;14.00;6.87;;;7.20;84.20;;;;;;4995288;28;20192;-76
2023/01/07 06:57:57;;;;;;;9.87;6.13;;;7.50;83.40;;;;;;5013073;28;20187;-75
2023/01/07 07:00:23;;;;;;;11.70;6.67;;;7.90;81.20;;;;;;5004599;28;20216;-75
2023/01/07 07:02:48;;;;;;;10.80;6.77;;;8.30;81.40;;;;;;4987477;28;20213;-76
2023/01/07 07:05:14;;;;;;;11.67;6.90;;;8.70;81.20;;;;;;5017584;28;20197;-77
2023/01/07 07:07:40;;;;;;;7.73;6.50;;;9.10;81.00;;;;;;5004702;28;20219;-75
2023/01/07 07:10:07;;;;;;;7.47;6.27;;;9.60;80.40;;;;;;5007477;28;20271;-78
2023/01/07 07:12:34;;;;;;;8.80;6.50;;;10.10;79.10;;;;;;5006567;28;20181;-75
2023/01/07 07:15:00;;;;;;;13.53;7.43;;;10.60;78.10;;;;;;5004969;28;20185;-75
2023/01/07 07:17:26;;;;;;;12.00;6.65;;;11.00;77.40;;;;;;5014943;28;20183;-75
2023/01/07 07:19:51;;;;;;;12.25;7.10;;;11.50;75.90;;;;;;5005712;28;20191;-77
2023/01/07 07:22:17;;;;;;;13.55;8.25;;;11.90;73.50;;;;;;5005132;28;20177;-75
2023/01/07 07:24:43;;;;;;;13.32;8.70;;;12.10;71.80;;;;;;5000355;28;20572;-77
2023/01/07 07:27:08;;;;;;;11.05;8.68;;;12.30;72.10;;;;;;4996208;28;20216;-76
2023/01/07 07:29:34;;;;;;;16.90;10.15;;;12.60;72.40;;;;;;4993341;28;20884;-76
2023/01/07 07:32:00;;;;;;;18.90;10.50;;;12.90;70.20;;;;;;5004726;28;20197;-78
2023/01/07 07:34:25;;;;;;;24.85;12.18;;;13.20;71.10;;;;;;4995018;28;20181;-76
2023/01/07 07:36:51;;;;;;;20.98;12.52;;;13.50;70.20;;;;;;5004806;28;20215;-77
2023/01/07 07:39:17;;;;;;;19.50;12.85;;;13.80;68.30;;;;;;5004635;28;20192;-78
2023/01/07 07:41:42;;;;;;;19.88;13.38;;;14.00;67.10;;;;;;5015269;28;20184;-78
2023/01/07 07:44:08;;;;;;;21.73;13.30;;;14.10;66.30;;;;;;5005450;28;20204;-79
2023/01/07 07:46:34;;;;;;;26.48;14.85;;;14.00;65.90;;;;;;5005570;28;20978;-77
2023/01/07 07:48:59;;;;;;;28.63;14.65;;;14.20;66.10;;;;;;5004159;28;20649;-80
2023/01/07 07:51:25;;;;;;;23.30;14.50;;;14.30;65.20;;;;;;5000842;28;20212;-78
2023/01/07 07:53:51;;;;;;;27.90;14.30;;;14.50;65.40;;;;;;5008445;28;20470;-78
2023/01/07 07:56:17;;;;;;;23.65;14.35;;;14.60;64.40;;;;;;5009045;28;20181;-75
2023/01/07 07:58:42;;;;;;;19.73;13.90;;;14.70;64.00;;;;;;5009194;28;20183;-76
2023/01/07 08:01:09;;;;;;;26.50;13.80;;;14.80;63.30;;;;;;5005832;28;20553;-76
2023/01/07 08:03:35;;;;;;;19.08;11.85;;;14.90;63.90;;;;;;5001699;28;20182;-76
2023/01/07 08:06:03;;;;;;;16.20;10.18;;;15.10;63.90;;;;;;5007570;28;20206;-78
2023/01/07 08:08:29;;;;;;;15.02;10.05;;;15.40;64.40;;;;;;5003754;28;20202;-78
2023/01/07 08:10:55;;;;;;;12.40;8.45;;;15.70;63.40;;;;;;5013611;28;20662;-82
2023/01/07 08:13:21;;;;;;;15.27;9.55;;;16.20;63.50;;;;;;5009729;28;20174;-79
2023/01/07 08:15:47;;;;;;;17.05;9.88;;;16.60;63.10;;;;;;5009367;28;20181;-77
2023/01/07 08:18:12;;;;;;;14.65;9.48;;;17.10;62.40;;;;;;5007351;28;20828;-78
2023/01/07 08:20:38;;;;;;;11.80;9.55;;;17.50;61.30;;;;;;5010956;28;20255;-79
2023/01/07 08:23:06;;;;;;;14.50;8.93;;;18.00;61.10;;;;;;5005948;28;20185;-78
2023/01/07 08:25:33;;;;;;;13.50;8.60;;;18.30;60.30;;;;;;4990785;28;20622;-79
2023/01/07 08:27:59;;;;;;;10.10;7.30;;;18.60;58.00;;;;;;5008153;28;20770;-78
2023/01/07 08:30:25;;;;;;;13.60;8.82;;;18.80;58.00;;;;;;5008489;28;20264;-77
2023/01/07 08:32:51;;;;;;;11.63;7.63;;;19.00;58.70;;;;;;5013597;28;20212;-79
2023/01/07 08:35:17;;;;;;;10.30;7.82;;;19.20;58.10;;;;;;5007627;28;20209;-77
2023/01/07 08:37:43;;;;;;;9.68;7.22;;;19.40;58.00;;;;;;5007758;28;21016;-78
2023/01/07 08:40:10;;;;;;;9.07;6.88;;;19.60;55.20;;;;;;5006972;28;20200;-78
2023/01/07 08:42:36;;;;;;;7.72;6.93;;;19.60;55.40;;;;;;5007432;28;20181;-78
2023/01/07 08:45:02;;;;;;;7.57;6.60;;;19.70;56.60;;;;;;5007111;28;20192;-78
2023/01/07 08:47:27;;;;;;;6.68;6.03;;;19.70;55.60;;;;;;5004006;28;20762;-77
2023/01/07 08:49:54;;;;;;;8.85;6.05;;;19.70;56.20;;;;;;5007705;28;20173;-77
2023/01/07 08:52:20;;;;;;;7.13;6.43;;;19.80;55.60;;;;;;5008432;28;20559;-77
2023/01/07 08:54:47;;;;;;;8.68;6.57;;;19.60;56.00;;;;;;5002090;28;20180;-78
2023/01/07 08:57:12;;;;;;;15.40;7.38;;;19.80;56.40;;;;;;5005432;28;20189;-82
2023/01/07 08:59:39;;;;;;;8.68;7.65;;;19.90;56.20;;;;;;5006012;28;20189;-76
2023/01/07 09:02:09;;;;;;;10.60;7.57;;;20.00;52.50;;;;;;5003930;28;20276;-77
2023/01/07 09:04:34;;;;;;;14.95;8.70;;;20.10;54.70;;;;;;5001465;28;20192;-77
2023/01/07 09:07:00;;;;;;;8.25;7.40;;;20.10;54.20;;;;;;5005464;28;20215;-80
2023/01/07 09:09:26;;;;;;;11.20;8.02;;;20.10;55.30;;;;;;5007657;28;20633;-80
2023/01/07 09:11:51;;;;;;;8.10;7.30;;;20.20;55.10;;;;;;5006836;28;20185;-78
2023/01/07 09:14:17;;;;;;;9.02;7.90;;;20.30;54.60;;;;;;5006980;28;20185;-79
2023/01/07 09:16:43;;;;;;;7.90;6.72;;;20.30;53.80;;;;;;5004752;28;20638;-79
2023/01/07 09:19:08;;;;;;;11.13;8.23;;;20.30;53.70;;;;;;5007442;28;20181;-78
2023/01/07 09:21:34;;;;;;;11.32;8.38;;;20.10;54.30;;;;;;5012088;28;20180;-78
2023/01/07 09:24:00;;;;;;;10.13;7.60;;;20.10;54.60;;;;;;5009103;28;20181;-78
2023/01/07 09:26:25;;;;;;;11.55;8.27;;;20.10;53.90;;;;;;5006892;28;20216;-77
2023/01/07 09:28:51;;;;;;;11.63;8.80;;;20.00;53.90;;;;;;5007313;28;20227;-78
2023/01/07 09:31:17;;;;;;;15.40;8.70;;;20.10;54.90;;;;;;5005356;28;20194;-78
2023/01/07 09:33:42;;;;;;;10.63;9.18;;;20.60;55.10;;;;;;5006165;28;20681;-78
2023/01/07 09:36:08;;;;;;;12.55;9.65;;;21.10;53.70;;;;;;5004181;28;20207;-79
2023/01/07 09:38:34;;;;;;;12.10;9.65;;;21.60;52.70;;;;;;5005796;28;20284;-79
2023/01/07 09:41:00;;;;;;;11.98;10.07;;;22.00;52.80;;;;;;5004561;28;20193;-79
2023/01/07 09:43:37;;;;;;;14.95;10.40;;;22.40;52.50;;;;;;5012792;28;20188;-80
2023/01/07 09:46:07;;;;;;;14.45;10.10;;;22.90;51.90;;;;;;5007151;28;20899;-79
2023/01/07 09:48:40;;;;;;;17.38;10.52;;;23.20;51.00;;;;;;4999897;28;20173;-79
2023/01/07 09:51:11;;;;;;;15.30;10.77;;;23.50;51.70;;;;;;5007124;28;20193;-79
2023/01/07 09:53:48;;;;;;;18.77;10.52;;;23.90;51.60;;;;;;5012898;28;20200;-78
2023/01/07 09:56:25;;;;;;;15.38;10.88;;;24.20;51.20;;;;;;5011133;28;20198;-79
2023/01/07 09:58:53;;;;;;;16.65;11.32;;;24.50;50.90;;;;;;5001186;28;20243;-80
2023/01/07 10:01:54;;;;;;;17.80;11.38;;;24.80;50.20;;;;;;5004003;28;20212;-78
2023/01/07 10:04:41;;;;;;;13.73;10.13;;;25.00;50.00;;;;;;4925725;29;20191;-77
2023/01/07 10:07:19;;;;;;;16.55;10.98;;;25.20;47.80;;;;;;4925712;29;20673;-78
2023/01/07 10:09:57;;;;;;;14.38;11.18;;;25.10;48.50;;;;;;4921857;29;20215;-80
2023/01/07 10:12:41;;;;;;;14.40;10.25;;;25.00;49.60;;;;;;4916748;29;20243;-80
2023/01/07 10:15:20;;;;;;;14.88;11.27;;;25.10;49.80;;;;;;4925297;28;20195;-75
2023/01/07 10:18:22;;;;;;;16.75;10.98;;;25.10;46.00;;;;;;4925409;29;20187;-78
2023/01/07 10:21:13;;;;;;;18.15;11.07;;;24.90;48.70;;;;;;4919672;29;20226;-76
2023/01/07 10:23:46;;;;;;;18.15;9.75;;;24.80;46.50;;;;;;4924607;29;20212;-77
2023/01/07 10:26:29;;;;;;;13.20;10.25;;;24.50;50.40;;;;;;4927778;29;20995;-77
2023/01/07 10:29:00;;;;;;;14.20;9.70;;;24.60;49.40;;;;;;4929381;28;20194;-78
2023/01/07 10:31:27;;;;;;;11.18;9.63;;;24.90;50.80;;;;;;4926638;29;20192;-75
2023/01/07 10:33:56;;;;;;;18.52;10.50;;;25.10;50.20;;;;;;4925372;29;20239;-76
2023/01/07 10:36:39;;;;;;;14.88;10.38;;;25.30;48.70;;;;;;4926702;29;20191;-76
2023/01/07 10:39:23;;;;;;;12.13;9.05;;;25.50;47.10;;;;;;4977027;28;20208;-77
2023/01/07 10:41:57;;;;;;;14.23;9.45;;;25.60;47.60;;;;;;5010446;28;20189;-77
2023/01/07 10:44:28;;;;;;;14.77;9.68;;;25.80;47.30;;;;;;5000017;28;20207;-76
2023/01/07 10:47:13;;;;;;;14.95;10.48;;;25.70;47.00;;;;;;4999685;28;20217;-76
2023/01/07 10:50:10;;;;;;;16.30;10.43;;;25.40;45.40;;;;;;4996741;28;20272;-73
2023/01/07 10:52:51;;;;;;;11.35;8.98;;;25.10;46.30;;;;;;5001238;28;20185;-73
2023/01/07 10:55:47;;;;;;;17.58;9.93;;;24.60;47.90;;;;;;5016348;28;20188;-74
2023/01/07 10:58:13;;;;;;;9.98;8.85;;;24.20;48.10;;;;;;5006026;28;20635;-75
2023/01/07 11:00:40;;;;;;;7.65;6.82;;;23.90;50.20;;;;;;5005917;28;20207;-74
2023/01/07 11:03:23;;;;;;;6.05;5.18;;;23.90;50.80;;;;;;5003310;28;20832;-77
2023/01/07 11:05:55;;;;;;;6.50;4.25;;;24.20;51.10;;;;;;5003179;28;20196;-79
2023/01/07 11:08:40;;;;;;;5.05;4.55;;;24.30;46.30;;;;;;4982580;28;20284;-77
2023/01/07 11:11:18;;;;;;;5.13;4.63;;;24.40;49.60;;;;;;4999180;28;20973;-77
2023/01/07 11:13:58;;;;;;;7.57;4.88;;;24.50;47.80;;;;;;4993380;28;20690;-77
2023/01/07 11:16:30;;;;;;;6.35;4.65;;;24.60;48.20;;;;;;5002034;28;20292;-76
2023/01/07 11:19:04;;;;;;;4.78;4.45;;;24.50;49.10;;;;;;5002965;28;20311;-77
2023/01/07 11:21:34;;;;;;;4.28;3.95;;;24.60;48.90;;;;;;5001989;28;20259;-77
2023/01/07 11:24:00;;;;;;;4.00;3.70;;;24.50;49.90;;;;;;5004008;28;20188;-77
2023/01/07 11:26:30;;;;;;;3.50;3.30;;;24.40;49.70;;;;;;5003006;28;20204;-79
2023/01/07 11:29:13;;;;;;;5.32;3.40;;;24.60;49.00;;;;;;5001525;28;20176;-76
2023/01/07 11:31:59;;;;;;;3.38;3.17;;;24.60;48.70;;;;;;5003422;28;20196;-77
2023/01/07 11:34:31;;;;;;;4.22;3.83;;;24.80;47.60;;;;;;5004787;28;20181;-75
2023/01/07 11:36:57;;;;;;;4.18;3.70;;;24.80;48.50;;;;;;4996900;28;20273;-77
2023/01/07 11:39:29;;;;;;;4.07;3.88;;;24.80;49.80;;;;;;5002953;28;20643;-77
2023/01/07 11:41:58;;;;;;;3.88;3.65;;;24.80;47.80;;;;;;5005815;28;20235;-75
2023/01/07 11:44:24;;;;;;;3.58;2.35;;;24.90;49.40;;;;;;5003453;28;20239;-77
2023/01/07 11:46:51;;;;;;;3.80;3.15;;;25.00;49.90;;;;;;5003025;28;20228;-78
2023/01/07 11:49:21;;;;;;;3.88;3.40;;;25.00;48.90;;;;;;5013506;28;20185;-76
2023/01/07 11:51:47;;;;;;;3.35;3.08;;;25.00;48.60;;;;;;5004769;28;20291;-76
2023/01/07 11:54:21;;;;;;;3.17;2.95;;;25.00;49.60;;;;;;5004693;28;20255;-77
2023/01/07 11:56:46;;;;;;;6.47;3.28;;;25.20;49.50;;;;;;5009112;28;20292;-77
2023/01/07 11:59:13;;;;;;;3.25;3.05;;;25.40;48.30;;;;;;5003045;28;20627;-77
2023/01/07 12:01:46;;;;;;;3.40;3.20;;;25.40;47.80;;;;;;4999261;28;20263;-77
2023/01/07 12:04:23;;;;;;;4.95;2.95;;;25.40;47.50;;;;;;5005961;28;20197;-77
2023/01/07 12:06:51;;;;;;;3.33;2.88;;;25.30;49.90;;;;;;5004329;28;20251;-78
2023/01/07 12:09:25;;;;;;;3.92;3.45;;;25.20;49.30;;;;;;5011664;28;20177;-78
2023/01/07 12:11:57;;;;;;;3.75;3.45;;;25.20;47.70;;;;;;5003375;28;20177;-77
2023/01/07 12:14:31;;;;;;;4.28;3.22;;;25.00;46.10;;;;;;5002732;28;20201;-78
2023/01/07 12:17:15;;;;;;;3.85;3.58;;;24.50;46.70;;;;;;4999777;28;20670;-77
2023/01/07 12:19:41;;;;;;;4.25;3.85;;;24.30;46.80;;;;;;5004190;28;20467;-77
2023/01/07 12:22:28;;;;;;;3.10;2.90;;;24.00;47.40;;;;;;4998387;28;20193;-77
2023/01/07 12:25:21;;;;;;;3.10;2.95;;;24.00;48.50;;;;;;5004421;28;20184;-77
2023/01/07 12:28:20;;;;;;;2.65;2.50;;;23.80;46.60;;;;;;4998651;28;20213;-77
2023/01/07 12:30:54;;;;;;;3.90;2.58;;;23.30;47.40;;;;;;5003603;28;20177;-77
2023/01/07 12:33:20;;;;;;;2.45;2.35;;;23.10;49.70;;;;;;4993379;28;20176;-77
2023/01/07 12:35:45;;;;;;;3.08;2.85;;;23.00;49.90;;;;;;5004090;28;20185;-77
2023/01/07 12:38:38;;;;;;;2.72;2.47;;;22.90;48.70;;;;;;5002478;28;20285;-77
2023/01/07 12:41:10;;;;;;;2.70;2.53;;;22.80;48.60;;;;;;5003729;28;20288;-77
2023/01/07 12:43:38;;;;;;;2.67;2.53;;;22.70;48.70;;;;;;5003657;28;20239;-79
2023/01/07 12:46:09;;;;;;;3.58;2.60;;;22.70;48.70;;;;;;4994293;28;20196;-78
2023/01/07 12:48:37;;;;;;;2.45;2.35;;;22.60;50.40;;;;;;5003647;28;20201;-75
2023/01/07 12:51:17;;;;;;;5.22;2.50;;;22.50;48.80;;;;;;5003706;28;20270;-77
2023/01/07 12:54:08;;;;;;;6.50;2.35;;;22.30;49.20;;;;;;5004486;28;20216;-78
2023/01/07 12:56:39;;;;;;;3.20;2.45;;;22.10;49.20;;;;;;4991601;28;20236;-77
2023/01/07 12:59:12;;;;;;;1.95;1.85;;;22.00;50.10;;;;;;5007903;28;20541;-77
2023/01/07 13:02:10;;;;;;;2.83;2.63;;;21.90;49.50;;;;;;5007331;28;20205;-77
2023/01/07 13:05:14;;;;;;;2.83;2.58;;;21.90;49.60;;;;;;5007022;28;20196;-77
2023/01/07 13:08:01;;;;;;;3.35;3.00;;;21.80;49.70;;;;;;4956835;28;20212;-76